Pagrindinis puslapis
METAR-TAF:

METAR-TAF

Oro uostai :

Edremit, Turkija

platuma: 39-33-16N, ilguma: 27-00-49E, Aukštis: 15 m

Dabartinis oras

Ataskaita buvo paskelbta 1 valandą ir 8 minutes, ne 05:50 UTC
Vėjas 9 kt iš Rytų, svyruoja nuo Šiaurės Rytų ir Rytų/Pietryčių
Temperatūra 13°C
Drėgmė 24%
Slėgis 1016 hPa
Matomumas 10 km arba daugiau
nėra debesų žemiau 1500 m ir nėra kamuolinių lietaus debesų

METAR: LTFD 100550Z 08009KT 040V110 CAVOK 13/M07 Q1016

Laikas: 09:58 (06:58 UTC)

Prognozė

Ataskaita buvo paskelbta 2 valandos ir 18 minutes, ne 04:40 UTC
Prognozė galioja nuo 10 metu 06 UTC su 10 metu 15 UTC
Vėjas 12 kt iš Rytų/Šiaurės Rytų
Matomumas 10 km arba daugiau
nėra debesų žemiau 1500 m ir nėra kamuolinių lietaus debesų

TAF: LTFD 100440Z 1006/1015 07012KT CAVOK

Orai ataskaitas ir orų prognozės (METAR, TAF).

turimą stotys yra geltonos ir raudonos taškus žemėlapyje.

Perkelti pele per norėdami pamatyti stoties vardą.

Tada spustelėkite, norėdami matyti oro stebėjimo ir prognozės.

Norėdami pakeisti žemėlapį: spustelėkite ant žalios mygtukų su juodo kryžiaus žemyn,; žalią mygtuką su brūkšneliu, jei norite nutolinti; arba žalių rodyklių gretimoms žemėlapius.


METAR-TAF: